createdAt,value
2017-12-15T00:00:32.977Z,989.87
2017-12-15T00:01:32.948Z,989.87
2017-12-15T00:02:32.975Z,989.82
2017-12-15T00:03:32.984Z,989.85
2017-12-15T00:04:33.003Z,989.84
2017-12-15T00:05:33.036Z,989.77
2017-12-15T00:06:33.045Z,989.79
2017-12-15T00:07:33.074Z,989.79
2017-12-15T00:08:33.092Z,989.76
2017-12-15T00:09:33.143Z,989.82
2017-12-15T00:10:33.127Z,989.76
2017-12-15T00:11:33.145Z,989.77
2017-12-15T00:12:33.164Z,989.76
2017-12-15T00:13:33.183Z,989.80
2017-12-15T00:14:33.200Z,989.79
2017-12-15T00:15:33.224Z,989.79
2017-12-15T00:16:33.244Z,989.82
2017-12-15T00:17:33.268Z,989.83
2017-12-15T00:18:33.286Z,989.84
2017-12-15T00:19:33.309Z,989.85
2017-12-15T00:20:33.332Z,989.80
2017-12-15T00:21:33.338Z,989.80
2017-12-15T00:22:33.364Z,989.83
2017-12-15T00:23:33.373Z,989.86
2017-12-15T00:24:33.395Z,989.87
2017-12-15T00:25:33.418Z,989.85
2017-12-15T00:26:33.443Z,989.85
2017-12-15T00:27:33.457Z,989.86
2017-12-15T00:28:33.476Z,989.86
2017-12-15T00:29:33.497Z,989.83
2017-12-15T00:30:33.521Z,989.82
2017-12-15T00:31:33.536Z,989.86
2017-12-15T00:32:33.553Z,989.84
2017-12-15T00:33:33.584Z,989.88
2017-12-15T00:34:33.600Z,989.87
2017-12-15T00:35:33.613Z,989.87
2017-12-15T00:36:33.629Z,989.90
2017-12-15T00:37:33.651Z,989.85
2017-12-15T00:38:33.680Z,989.88
2017-12-15T00:39:33.691Z,989.89
2017-12-15T00:40:33.712Z,989.89
2017-12-15T00:41:33.742Z,989.88
2017-12-15T00:42:33.759Z,989.87
2017-12-15T00:43:33.781Z,989.85
2017-12-15T00:44:33.788Z,989.85
2017-12-15T00:45:33.817Z,989.86
2017-12-15T00:46:33.831Z,989.82
2017-12-15T00:47:33.852Z,989.82
2017-12-15T00:48:33.868Z,989.75
2017-12-15T00:49:33.913Z,989.78
2017-12-15T00:50:33.913Z,989.75
2017-12-15T00:51:33.925Z,989.78
2017-12-15T00:52:33.955Z,989.75
2017-12-15T00:53:33.963Z,989.72
2017-12-15T00:54:33.986Z,989.73
2017-12-15T00:55:34.004Z,989.73
2017-12-15T00:56:34.035Z,989.71
2017-12-15T00:57:34.052Z,989.76
2017-12-15T00:58:34.069Z,989.75
2017-12-15T00:59:34.083Z,989.75
2017-12-15T01:00:34.103Z,989.77
2017-12-15T01:01:34.120Z,989.75
2017-12-15T01:02:34.147Z,989.71
2017-12-15T01:03:34.167Z,989.72
2017-12-15T01:04:34.181Z,989.67
2017-12-15T01:05:34.206Z,989.68
2017-12-15T01:06:34.223Z,989.67
2017-12-15T01:07:34.240Z,989.65
2017-12-15T01:08:34.262Z,989.65
2017-12-15T01:09:34.298Z,989.61
2017-12-15T01:10:34.303Z,989.64
2017-12-15T01:11:34.316Z,989.63
2017-12-15T01:12:34.345Z,989.63
2017-12-15T01:13:34.354Z,989.63
2017-12-15T01:14:34.395Z,989.65
2017-12-15T01:15:34.405Z,989.64
2017-12-15T01:16:34.413Z,989.65
2017-12-15T01:17:34.438Z,989.68
2017-12-15T01:18:34.454Z,989.67
2017-12-15T01:19:34.471Z,989.68
2017-12-15T01:20:34.502Z,989.73
2017-12-15T01:21:34.514Z,989.76
2017-12-15T01:22:34.547Z,989.78
2017-12-15T01:23:34.561Z,989.78
2017-12-15T01:24:34.573Z,989.82
2017-12-15T01:25:34.629Z,989.82
2017-12-15T01:26:34.615Z,989.82
2017-12-15T01:27:34.642Z,989.82
2017-12-15T01:28:34.654Z,989.85
2017-12-15T01:29:34.663Z,989.84
2017-12-15T01:30:34.692Z,989.86
2017-12-15T01:31:34.708Z,989.86
2017-12-15T01:32:34.737Z,989.89
2017-12-15T01:33:34.751Z,989.90
2017-12-15T01:34:34.767Z,989.89
2017-12-15T01:35:34.790Z,989.89
2017-12-15T01:36:34.833Z,989.88
2017-12-15T01:37:34.828Z,989.89
2017-12-15T01:38:34.897Z,989.90
2017-12-15T01:39:34.869Z,989.88
2017-12-15T01:40:34.889Z,989.86
2017-12-15T01:41:34.906Z,989.83
2017-12-15T01:42:34.925Z,989.82
2017-12-15T01:43:34.940Z,989.79
2017-12-15T01:44:34.973Z,989.85
2017-12-15T01:45:34.982Z,989.83
2017-12-15T01:46:34.997Z,989.83
2017-12-15T01:47:35.027Z,989.83
2017-12-15T01:48:35.039Z,989.82
2017-12-15T01:49:35.059Z,989.79
2017-12-15T01:50:35.092Z,989.75
2017-12-15T01:51:35.122Z,989.74
2017-12-15T01:52:35.116Z,989.76
2017-12-15T01:53:35.139Z,989.72
2017-12-15T01:54:35.153Z,989.71
2017-12-15T01:55:35.184Z,989.73
2017-12-15T01:56:35.196Z,989.72
2017-12-15T01:57:35.207Z,989.71
2017-12-15T01:58:35.228Z,989.68
2017-12-15T01:59:35.248Z,989.66
2017-12-15T02:00:35.270Z,989.63
2017-12-15T02:01:35.289Z,989.61
2017-12-15T02:02:35.313Z,989.59
2017-12-15T02:03:35.320Z,989.62
2017-12-15T02:04:35.365Z,989.61
2017-12-15T02:05:35.361Z,989.57
2017-12-15T02:06:35.381Z,989.60
2017-12-15T02:07:35.409Z,989.55
2017-12-15T02:08:35.422Z,989.56
2017-12-15T02:09:35.457Z,989.58
2017-12-15T02:10:35.463Z,989.55
2017-12-15T02:11:35.478Z,989.59
2017-12-15T02:12:35.500Z,989.61
2017-12-15T02:13:35.519Z,989.58
2017-12-15T02:14:35.537Z,989.58
2017-12-15T02:15:35.558Z,989.56
2017-12-15T02:16:35.575Z,989.62
2017-12-15T02:17:35.595Z,989.62
2017-12-15T02:18:35.614Z,989.61
2017-12-15T02:19:35.634Z,989.60
2017-12-15T02:20:35.659Z,989.64
2017-12-15T02:21:35.675Z,989.65
2017-12-15T02:22:35.693Z,989.66
2017-12-15T02:23:35.707Z,989.64
2017-12-15T02:24:35.742Z,989.66
2017-12-15T02:25:35.751Z,989.65
2017-12-15T02:26:35.777Z,989.68
2017-12-15T02:27:35.797Z,989.66
2017-12-15T02:28:35.809Z,989.69
2017-12-15T02:29:35.833Z,989.68
2017-12-15T02:30:35.847Z,989.66
2017-12-15T02:31:35.863Z,989.65
2017-12-15T02:32:35.883Z,989.67
2017-12-15T02:33:35.902Z,989.67
2017-12-15T02:34:35.935Z,989.66
2017-12-15T02:35:35.942Z,989.68
2017-12-15T02:36:35.962Z,989.68
2017-12-15T02:37:35.981Z,989.70
2017-12-15T02:38:36.012Z,989.71
2017-12-15T02:39:36.020Z,989.68
2017-12-15T02:40:36.036Z,989.71
2017-12-15T02:41:36.065Z,989.70
2017-12-15T02:42:36.074Z,989.73
2017-12-15T02:43:36.094Z,989.72
2017-12-15T02:44:36.115Z,989.72
2017-12-15T02:45:36.136Z,989.74
2017-12-15T02:46:36.157Z,989.73
2017-12-15T02:47:36.178Z,989.73
2017-12-15T02:48:36.191Z,989.68
2017-12-15T02:49:36.219Z,989.71
2017-12-15T02:50:36.252Z,989.69
2017-12-15T02:51:36.249Z,989.69
2017-12-15T02:52:36.282Z,989.63
2017-12-15T02:53:36.288Z,989.66
2017-12-15T02:54:36.306Z,989.67
2017-12-15T02:55:36.326Z,989.66
2017-12-15T02:56:36.345Z,989.63
2017-12-15T02:57:36.364Z,989.65
2017-12-15T02:58:36.387Z,989.64
2017-12-15T02:59:36.401Z,989.64
2017-12-15T03:00:36.421Z,989.65
2017-12-15T03:01:36.442Z,989.65
2017-12-15T03:02:36.464Z,989.65
2017-12-15T03:03:36.482Z,989.65
2017-12-15T03:04:36.500Z,989.67
2017-12-15T03:05:36.634Z,989.65
2017-12-15T03:06:36.541Z,989.71
2017-12-15T03:07:36.604Z,989.70
2017-12-15T03:08:36.579Z,989.69
2017-12-15T03:09:36.603Z,989.72
2017-12-15T03:10:36.624Z,989.74
2017-12-15T03:11:36.657Z,989.74
2017-12-15T03:12:36.659Z,989.73
2017-12-15T03:13:36.679Z,989.70
2017-12-15T03:14:36.695Z,989.64
2017-12-15T03:15:36.717Z,989.66
2017-12-15T03:16:36.733Z,989.67
2017-12-15T03:17:36.747Z,989.67
2017-12-15T03:18:36.911Z,989.70
2017-12-15T03:19:36.792Z,989.68
2017-12-15T03:20:36.837Z,989.70
2017-12-15T03:21:36.826Z,989.66
2017-12-15T03:22:36.851Z,989.68
2017-12-15T03:23:36.862Z,989.73
2017-12-15T03:24:36.884Z,989.66
2017-12-15T03:25:36.907Z,989.66
2017-12-15T03:26:36.928Z,989.64
2017-12-15T03:27:36.948Z,989.63
2017-12-15T03:28:36.960Z,989.66
2017-12-15T03:29:36.984Z,989.66
2017-12-15T03:30:37.000Z,989.73
2017-12-15T03:31:37.028Z,989.78
2017-12-15T03:32:37.041Z,989.74
2017-12-15T03:33:37.096Z,989.72
2017-12-15T03:34:37.101Z,989.73
2017-12-15T03:35:37.098Z,989.69
2017-12-15T03:36:37.114Z,989.68
2017-12-15T03:37:37.134Z,989.68
2017-12-15T03:38:37.152Z,989.64
2017-12-15T03:39:37.172Z,989.59
2017-12-15T03:40:37.191Z,989.61
2017-12-15T03:41:37.207Z,989.58
2017-12-15T03:42:37.229Z,989.55
2017-12-15T03:43:37.256Z,989.54
2017-12-15T03:44:37.885Z,989.59
2017-12-15T03:45:37.284Z,989.59
2017-12-15T03:46:37.315Z,989.57
2017-12-15T03:47:37.325Z,989.58
2017-12-15T03:48:37.343Z,989.56
2017-12-15T03:49:37.364Z,989.59
2017-12-15T03:50:37.380Z,989.58
2017-12-15T03:51:37.398Z,989.57
2017-12-15T03:52:37.430Z,989.55
2017-12-15T03:53:37.434Z,989.53
2017-12-15T03:54:37.456Z,989.56
2017-12-15T03:55:37.478Z,989.57
2017-12-15T03:56:37.492Z,989.62
2017-12-15T03:57:37.515Z,989.60
2017-12-15T03:58:37.579Z,989.60
2017-12-15T03:59:37.548Z,989.64
2017-12-15T04:00:37.570Z,989.66
2017-12-15T04:01:37.590Z,989.64
2017-12-15T04:02:37.612Z,989.66
2017-12-15T04:03:37.628Z,989.62
2017-12-15T04:04:37.649Z,989.65
2017-12-15T04:05:37.666Z,989.60
2017-12-15T04:06:37.686Z,989.61
2017-12-15T04:07:37.702Z,989.57
2017-12-15T04:08:37.720Z,989.56
2017-12-15T04:09:37.739Z,989.58
2017-12-15T04:10:37.760Z,989.56
2017-12-15T04:11:37.780Z,989.54
2017-12-15T04:12:37.800Z,989.54
2017-12-15T04:13:37.818Z,989.49
2017-12-15T04:14:37.839Z,989.53
2017-12-15T04:15:37.859Z,989.53
2017-12-15T04:16:37.874Z,989.54
2017-12-15T04:17:37.898Z,989.54
2017-12-15T04:18:37.916Z,989.51
2017-12-15T04:19:37.934Z,989.52
2017-12-15T04:20:37.984Z,989.56
2017-12-15T04:21:37.981Z,989.56
2017-12-15T04:22:37.997Z,989.57
2017-12-15T04:23:38.007Z,989.56
2017-12-15T04:24:38.026Z,989.58
2017-12-15T04:25:38.055Z,989.63
2017-12-15T04:26:38.071Z,989.60
2017-12-15T04:27:38.085Z,989.57
2017-12-15T04:28:38.107Z,989.54
2017-12-15T04:29:38.130Z,989.58
2017-12-15T04:30:38.144Z,989.56
2017-12-15T04:31:38.170Z,989.50
2017-12-15T04:32:38.185Z,989.53
2017-12-15T04:33:38.201Z,989.51
2017-12-15T04:34:38.222Z,989.49
2017-12-15T04:35:38.243Z,989.50
2017-12-15T04:36:38.262Z,989.51
2017-12-15T04:37:38.281Z,989.49
2017-12-15T04:38:38.300Z,989.48
2017-12-15T04:39:38.315Z,989.47
2017-12-15T04:40:38.339Z,989.48
2017-12-15T04:41:38.355Z,989.47
2017-12-15T04:42:38.378Z,989.47
2017-12-15T04:43:38.391Z,989.51
2017-12-15T04:44:38.410Z,989.49
2017-12-15T04:45:38.432Z,989.53
2017-12-15T04:46:38.458Z,989.49
2017-12-15T04:47:38.473Z,989.50
2017-12-15T04:48:38.489Z,989.49
2017-12-15T04:49:38.514Z,989.54
2017-12-15T04:50:38.525Z,989.51
2017-12-15T04:51:38.544Z,989.49
2017-12-15T04:52:38.570Z,989.48
2017-12-15T04:53:38.583Z,989.44
2017-12-15T04:54:38.604Z,989.46
2017-12-15T04:55:38.624Z,989.45
2017-12-15T04:56:38.641Z,989.43
2017-12-15T04:57:38.666Z,989.45
2017-12-15T04:58:38.680Z,989.49
2017-12-15T04:59:38.702Z,989.49
2017-12-15T05:00:38.731Z,989.48
2017-12-15T05:01:38.737Z,989.52
2017-12-15T05:02:38.823Z,989.55
2017-12-15T05:03:38.781Z,989.56
2017-12-15T05:04:38.794Z,989.57
2017-12-15T05:05:38.814Z,989.59
2017-12-15T05:06:38.834Z,989.58
2017-12-15T05:07:38.863Z,989.57
2017-12-15T05:08:38.873Z,989.59
2017-12-15T05:09:38.895Z,989.56
2017-12-15T05:10:38.916Z,989.56
2017-12-15T05:11:38.933Z,989.56
2017-12-15T05:12:38.951Z,989.60
2017-12-15T05:13:39.883Z,989.58
2017-12-15T05:14:38.990Z,989.55
2017-12-15T05:15:39.017Z,989.57
2017-12-15T05:16:39.023Z,989.56
2017-12-15T05:17:39.042Z,989.55
2017-12-15T05:18:39.071Z,989.58
2017-12-15T05:19:39.081Z,989.59
2017-12-15T05:20:39.111Z,989.60
2017-12-15T05:21:39.118Z,989.61
2017-12-15T05:22:39.138Z,989.64
2017-12-15T05:23:39.164Z,989.60
2017-12-15T05:24:39.179Z,989.59
2017-12-15T05:25:39.195Z,989.57
2017-12-15T05:26:39.356Z,989.57
2017-12-15T05:27:39.236Z,989.57
2017-12-15T05:28:39.270Z,989.59
2017-12-15T05:29:39.275Z,989.60
2017-12-15T05:30:39.305Z,989.60
2017-12-15T05:31:39.311Z,989.56
2017-12-15T05:32:39.344Z,989.60
2017-12-15T05:33:39.357Z,989.57
2017-12-15T05:34:39.383Z,989.63
2017-12-15T05:35:39.406Z,989.63
2017-12-15T05:36:39.411Z,989.67
2017-12-15T05:37:39.443Z,989.63
2017-12-15T05:38:39.447Z,989.60
2017-12-15T05:39:39.462Z,989.57
2017-12-15T05:40:39.496Z,989.57
2017-12-15T05:41:39.509Z,989.55
2017-12-15T05:42:39.526Z,989.58
2017-12-15T05:43:39.548Z,989.61
2017-12-15T05:44:39.556Z,989.67
2017-12-15T05:45:39.585Z,989.66
2017-12-15T05:46:39.604Z,989.67
2017-12-15T05:47:39.621Z,989.69
2017-12-15T05:48:39.637Z,989.66
2017-12-15T05:49:39.662Z,989.66
2017-12-15T05:50:39.673Z,989.70
2017-12-15T05:51:39.707Z,989.68
2017-12-15T05:52:39.717Z,989.72
2017-12-15T05:53:39.735Z,989.74
2017-12-15T05:54:39.753Z,989.71
2017-12-15T05:55:39.770Z,989.76
2017-12-15T05:56:39.796Z,989.74
2017-12-15T05:57:39.838Z,989.72
2017-12-15T05:58:39.831Z,989.68
2017-12-15T05:59:39.845Z,989.69
2017-12-15T06:00:39.870Z,989.68
2017-12-15T06:01:39.882Z,989.70
2017-12-15T06:02:39.906Z,989.70
2017-12-15T06:03:39.925Z,989.72
2017-12-15T06:04:39.943Z,989.70
2017-12-15T06:05:39.965Z,989.72
2017-12-15T06:06:39.983Z,989.76
2017-12-15T06:07:40.004Z,989.77
2017-12-15T06:08:40.021Z,989.74
2017-12-15T06:09:40.039Z,989.73
2017-12-15T06:10:40.068Z,989.75
2017-12-15T06:11:40.080Z,989.77
2017-12-15T06:12:40.100Z,989.76
2017-12-15T06:13:40.140Z,989.78
2017-12-15T06:14:40.142Z,989.81
2017-12-15T06:15:40.155Z,989.80
2017-12-15T06:16:40.176Z,989.80
2017-12-15T06:17:40.206Z,989.78
2017-12-15T06:18:40.216Z,989.80
2017-12-15T06:19:40.233Z,989.85
2017-12-15T06:20:40.255Z,989.84
2017-12-15T06:21:40.271Z,989.89
2017-12-15T06:22:40.297Z,989.92
2017-12-15T06:23:40.306Z,989.92
2017-12-15T06:24:40.328Z,989.94
2017-12-15T06:25:40.355Z,989.94
2017-12-15T06:26:40.368Z,989.93
2017-12-15T06:27:40.390Z,989.91
2017-12-15T06:28:40.405Z,989.93
2017-12-15T06:29:40.423Z,989.94
2017-12-15T06:30:40.455Z,989.92
2017-12-15T06:31:41.384Z,989.94
2017-12-15T06:32:40.479Z,989.98
2017-12-15T06:33:40.502Z,989.97
2017-12-15T06:34:40.522Z,989.97
2017-12-15T06:35:40.545Z,989.95
2017-12-15T06:36:40.559Z,989.97
2017-12-15T06:37:40.586Z,989.95
2017-12-15T06:38:40.598Z,989.96
2017-12-15T06:39:40.617Z,989.97
2017-12-15T06:40:40.633Z,989.95
2017-12-15T06:41:40.652Z,989.99
2017-12-15T06:42:40.678Z,989.96
2017-12-15T06:43:40.690Z,989.94
2017-12-15T06:44:40.716Z,989.92
2017-12-15T06:45:40.729Z,989.95
2017-12-15T06:46:40.752Z,989.98
2017-12-15T06:47:40.780Z,989.96
2017-12-15T06:48:40.795Z,989.98
2017-12-15T06:49:40.810Z,990.00
2017-12-15T06:50:40.835Z,990.03
2017-12-15T06:51:40.847Z,990.01
2017-12-15T06:52:40.869Z,990.03
2017-12-15T06:53:40.882Z,990.04
2017-12-15T06:54:40.907Z,990.04
2017-12-15T06:55:40.928Z,990.05
2017-12-15T06:56:40.958Z,990.07
2017-12-15T06:57:40.968Z,990.08
2017-12-15T06:58:40.980Z,990.11
2017-12-15T06:59:40.997Z,990.12
2017-12-15T07:00:41.021Z,990.14
2017-12-15T07:01:41.047Z,990.17
2017-12-15T07:02:41.060Z,990.21
2017-12-15T07:03:41.080Z,990.21
2017-12-15T07:04:41.092Z,990.21
2017-12-15T07:05:41.121Z,990.26
2017-12-15T07:06:41.144Z,990.27
2017-12-15T07:07:41.151Z,990.30
2017-12-15T07:08:41.234Z,990.30
2017-12-15T07:09:41.206Z,990.30
2017-12-15T07:10:41.892Z,990.30
2017-12-15T07:11:41.236Z,990.29
2017-12-15T07:12:41.249Z,990.30
2017-12-15T07:13:41.267Z,990.29
2017-12-15T07:14:41.290Z,990.28
2017-12-15T07:15:41.309Z,990.29
2017-12-15T07:16:41.331Z,990.30
2017-12-15T07:17:41.346Z,990.34
2017-12-15T07:18:41.366Z,990.34
2017-12-15T07:19:41.384Z,990.36
2017-12-15T07:20:41.401Z,990.34
2017-12-15T07:21:41.420Z,990.38
2017-12-15T07:22:41.452Z,990.37
2017-12-15T07:23:41.460Z,990.35
2017-12-15T07:24:41.479Z,990.35
2017-12-15T07:25:41.501Z,990.36
2017-12-15T07:26:41.526Z,990.35
2017-12-15T07:27:41.545Z,990.35
2017-12-15T07:28:41.559Z,990.36
2017-12-15T07:29:41.579Z,990.34
2017-12-15T07:30:41.596Z,990.35
2017-12-15T07:31:41.615Z,990.37
2017-12-15T07:32:41.632Z,990.33
2017-12-15T07:33:41.657Z,990.35
2017-12-15T07:34:41.673Z,990.33
2017-12-15T07:35:41.691Z,990.36
2017-12-15T07:36:41.707Z,990.34
2017-12-15T07:37:41.727Z,990.34
2017-12-15T07:38:41.752Z,990.35
2017-12-15T07:39:41.770Z,990.35
2017-12-15T07:40:41.786Z,990.37
2017-12-15T07:41:41.804Z,990.39
2017-12-15T07:42:41.832Z,990.39
2017-12-15T07:43:41.853Z,990.42
2017-12-15T07:44:41.861Z,990.43
2017-12-15T07:45:41.885Z,990.41
2017-12-15T07:46:41.903Z,990.41
2017-12-15T07:47:41.922Z,990.39
2017-12-15T07:48:41.940Z,990.42
2017-12-15T07:49:41.961Z,990.45
2017-12-15T07:50:41.978Z,990.49
2017-12-15T07:51:42.001Z,990.50
2017-12-15T07:52:42.022Z,990.50
2017-12-15T07:53:42.038Z,990.52
2017-12-15T07:54:42.057Z,990.52
2017-12-15T07:55:42.073Z,990.51
2017-12-15T07:56:42.096Z,990.52
2017-12-15T07:57:42.118Z,990.51
2017-12-15T07:58:42.135Z,990.48
2017-12-15T07:59:42.153Z,990.46
2017-12-15T08:00:42.173Z,990.46
2017-12-15T08:01:42.191Z,990.45
2017-12-15T08:02:42.219Z,990.50
2017-12-15T08:03:42.231Z,990.48
2017-12-15T08:04:42.249Z,990.53
2017-12-15T08:05:42.269Z,990.52
2017-12-15T08:06:42.288Z,990.55
2017-12-15T08:07:42.322Z,990.53
2017-12-15T08:08:42.335Z,990.53
2017-12-15T08:09:42.345Z,990.53
2017-12-15T08:10:42.372Z,990.51
2017-12-15T08:11:42.388Z,990.53
2017-12-15T08:12:42.404Z,990.57
2017-12-15T08:13:42.432Z,990.56
2017-12-15T08:14:42.443Z,990.60
2017-12-15T08:15:42.472Z,990.62
2017-12-15T08:16:42.484Z,990.59
2017-12-15T08:17:42.500Z,990.61
2017-12-15T08:18:42.528Z,990.59
2017-12-15T08:19:42.546Z,990.58
2017-12-15T08:20:42.564Z,990.57
2017-12-15T08:21:42.587Z,990.62
2017-12-15T08:22:42.611Z,990.61
2017-12-15T08:23:42.616Z,990.60
2017-12-15T08:24:42.638Z,990.61
2017-12-15T08:25:42.656Z,990.62
2017-12-15T08:26:42.767Z,990.63
2017-12-15T08:27:42.695Z,990.68
2017-12-15T08:28:42.719Z,990.72
2017-12-15T08:29:42.735Z,990.67
2017-12-15T08:30:42.756Z,990.71
2017-12-15T08:31:42.775Z,990.71
2017-12-15T08:32:42.798Z,990.71
2017-12-15T08:33:42.811Z,990.76
2017-12-15T08:34:42.834Z,990.80
2017-12-15T08:35:42.856Z,990.84
2017-12-15T08:36:42.869Z,990.85
2017-12-15T08:37:42.895Z,990.83
2017-12-15T08:38:42.908Z,990.86
2017-12-15T08:39:43.008Z,990.86
2017-12-15T08:40:42.949Z,990.88
2017-12-15T08:41:42.972Z,990.91
2017-12-15T08:42:42.988Z,990.92
2017-12-15T08:43:43.007Z,990.93
2017-12-15T08:44:43.026Z,990.95
2017-12-15T08:45:43.045Z,991.04
2017-12-15T08:46:43.071Z,991.04
2017-12-15T08:47:43.118Z,991.06
2017-12-15T08:48:43.115Z,991.11
2017-12-15T08:49:43.125Z,991.11
2017-12-15T08:50:43.151Z,991.11
2017-12-15T08:51:43.176Z,991.11
2017-12-15T08:52:43.199Z,991.15
2017-12-15T08:53:43.204Z,991.18
2017-12-15T08:54:43.221Z,991.21
2017-12-15T08:55:43.241Z,991.23
2017-12-15T08:56:43.270Z,991.19
2017-12-15T08:57:43.285Z,991.20
2017-12-15T08:58:43.311Z,991.22
2017-12-15T08:59:43.326Z,991.24
2017-12-15T09:00:43.342Z,991.25
2017-12-15T09:01:43.360Z,991.27
2017-12-15T09:02:43.380Z,991.27
2017-12-15T09:03:43.463Z,991.27
2017-12-15T09:04:43.425Z,991.31
2017-12-15T09:05:43.449Z,991.36
2017-12-15T09:06:43.457Z,991.37
2017-12-15T09:07:43.474Z,991.36
2017-12-15T09:08:43.502Z,991.36
2017-12-15T09:09:43.518Z,991.35
2017-12-15T09:10:43.533Z,991.37
2017-12-15T09:11:43.558Z,991.36
2017-12-15T09:12:43.574Z,991.40
2017-12-15T09:13:43.592Z,991.40
2017-12-15T09:14:43.616Z,991.44
2017-12-15T09:15:43.638Z,991.44
2017-12-15T09:16:43.659Z,991.44
2017-12-15T09:17:43.675Z,991.47
2017-12-15T09:18:43.690Z,991.50
2017-12-15T09:19:43.717Z,991.51
2017-12-15T09:20:43.736Z,991.53
2017-12-15T09:21:43.753Z,991.51
2017-12-15T09:22:43.795Z,991.54
2017-12-15T09:23:43.794Z,991.52
2017-12-15T09:24:43.810Z,991.56
2017-12-15T09:25:43.831Z,991.59
2017-12-15T09:26:43.849Z,991.55
2017-12-15T09:27:43.890Z,991.54
2017-12-15T09:28:43.896Z,991.58
2017-12-15T09:29:43.918Z,991.59
2017-12-15T09:30:43.943Z,991.62
2017-12-15T09:31:43.953Z,991.62
2017-12-15T09:32:43.965Z,991.59
2017-12-15T09:33:43.996Z,991.61
2017-12-15T09:34:44.012Z,991.65
2017-12-15T09:35:44.031Z,991.63
2017-12-15T09:36:44.108Z,991.60
2017-12-15T09:37:44.069Z,991.61
2017-12-15T09:38:44.112Z,991.58
2017-12-15T09:39:44.109Z,991.56
2017-12-15T09:40:44.126Z,991.57
2017-12-15T09:41:44.152Z,991.55
2017-12-15T09:42:44.183Z,991.58
2017-12-15T09:43:44.198Z,991.59
2017-12-15T09:44:44.216Z,991.60
2017-12-15T09:45:44.227Z,991.59
2017-12-15T09:46:44.284Z,991.62
2017-12-15T09:47:44.274Z,991.62
2017-12-15T09:48:44.311Z,991.62
2017-12-15T09:49:44.312Z,991.61
2017-12-15T09:50:44.324Z,991.64
2017-12-15T09:51:44.344Z,991.63
2017-12-15T09:52:44.374Z,991.66
2017-12-15T09:53:44.418Z,991.70
2017-12-15T09:54:44.404Z,991.72
2017-12-15T09:55:44.422Z,991.68
2017-12-15T09:56:44.443Z,991.71
2017-12-15T09:57:44.469Z,991.69
2017-12-15T09:58:44.493Z,991.68
2017-12-15T09:59:44.501Z,991.71
2017-12-15T10:00:44.531Z,991.70
2017-12-15T10:01:44.561Z,991.71
2017-12-15T10:02:44.562Z,991.72
2017-12-15T10:03:44.582Z,991.76
2017-12-15T10:04:44.601Z,991.76
2017-12-15T10:05:44.621Z,991.74
2017-12-15T10:06:44.643Z,991.78
2017-12-15T10:07:44.715Z,991.78
2017-12-15T10:08:44.691Z,991.77
2017-12-15T10:09:44.705Z,991.76
2017-12-15T10:10:44.750Z,991.76
2017-12-15T10:11:44.755Z,991.77
2017-12-15T10:12:44.754Z,991.82
2017-12-15T10:13:44.819Z,991.82
2017-12-15T10:14:44.795Z,991.82
2017-12-15T10:15:44.819Z,991.85
2017-12-15T10:16:44.843Z,991.82
2017-12-15T10:17:44.854Z,991.83
2017-12-15T10:18:44.878Z,991.84
2017-12-15T10:19:44.916Z,991.86
2017-12-15T10:20:44.913Z,991.85
2017-12-15T10:21:44.949Z,991.90
2017-12-15T10:22:44.973Z,991.85
2017-12-15T10:23:44.968Z,991.85
2017-12-15T10:24:44.997Z,991.81
2017-12-15T10:25:45.032Z,991.87
2017-12-15T10:26:45.035Z,991.89
2017-12-15T10:27:45.063Z,991.83
2017-12-15T10:28:45.080Z,991.86
2017-12-15T10:29:45.091Z,991.87
2017-12-15T10:30:45.130Z,991.83
2017-12-15T10:31:45.140Z,991.85
2017-12-15T10:32:45.897Z,991.87
2017-12-15T10:33:45.173Z,991.87
2017-12-15T10:34:45.267Z,991.87
2017-12-15T10:35:45.260Z,991.88
2017-12-15T10:36:45.231Z,991.88
2017-12-15T10:37:45.249Z,991.89
2017-12-15T10:38:45.271Z,991.88
2017-12-15T10:39:45.319Z,991.92
2017-12-15T10:40:45.327Z,991.95
2017-12-15T10:41:45.326Z,991.96
2017-12-15T10:42:45.355Z,991.95
2017-12-15T10:43:45.370Z,991.97
2017-12-15T10:44:45.394Z,991.97
2017-12-15T10:45:45.416Z,991.98
2017-12-15T10:46:45.432Z,992.00
2017-12-15T10:47:45.464Z,992.01
2017-12-15T10:48:45.466Z,992.01
2017-12-15T10:49:45.487Z,992.03
2017-12-15T10:50:45.499Z,992.04
2017-12-15T10:51:45.525Z,992.03
2017-12-15T10:52:45.544Z,992.08
2017-12-15T10:53:45.564Z,992.08
2017-12-15T10:54:45.666Z,992.04
2017-12-15T10:55:45.602Z,992.03
2017-12-15T10:56:45.621Z,992.03
2017-12-15T10:57:45.637Z,992.03
2017-12-15T10:58:45.657Z,992.03
2017-12-15T10:59:45.687Z,992.01
2017-12-15T11:00:45.757Z,992.04
2017-12-15T11:01:45.781Z,992.02
2017-12-15T11:02:45.740Z,992.00
2017-12-15T11:03:45.763Z,992.06
2017-12-15T11:04:45.789Z,992.05
2017-12-15T11:05:45.805Z,992.07
2017-12-15T11:06:45.812Z,992.09
2017-12-15T11:07:45.838Z,992.07
2017-12-15T11:08:45.853Z,992.09
2017-12-15T11:09:45.871Z,992.11
2017-12-15T11:10:45.889Z,992.09
2017-12-15T11:11:45.920Z,992.11
2017-12-15T11:12:45.932Z,992.14
2017-12-15T11:13:45.953Z,992.15
2017-12-15T11:14:45.979Z,992.15
2017-12-15T11:15:45.990Z,992.17
2017-12-15T11:16:46.006Z,992.19
2017-12-15T11:17:46.030Z,992.19
2017-12-15T11:18:46.049Z,992.21
2017-12-15T11:19:46.071Z,992.20
2017-12-15T11:20:46.098Z,992.21
2017-12-15T11:21:46.108Z,992.25
2017-12-15T11:22:46.133Z,992.26
2017-12-15T11:23:46.152Z,992.27
2017-12-15T11:24:46.178Z,992.28
2017-12-15T11:25:46.190Z,992.31
2017-12-15T11:26:46.216Z,992.32
2017-12-15T11:27:46.229Z,992.33
2017-12-15T11:28:46.251Z,992.31
2017-12-15T11:29:46.271Z,992.37
2017-12-15T11:30:46.289Z,992.33
2017-12-15T11:31:46.301Z,992.38
2017-12-15T11:32:46.349Z,992.41
2017-12-15T11:33:46.359Z,992.40
2017-12-15T11:34:46.372Z,992.43
2017-12-15T11:35:46.390Z,992.44
2017-12-15T11:36:46.401Z,992.42
2017-12-15T11:37:46.419Z,992.44
2017-12-15T11:38:46.460Z,992.43
2017-12-15T11:39:46.505Z,992.44
2017-12-15T11:40:46.484Z,992.46
2017-12-15T11:41:46.504Z,992.48
2017-12-15T11:42:46.514Z,992.44
2017-12-15T11:43:46.537Z,992.46
2017-12-15T11:44:46.577Z,992.44
2017-12-15T11:45:46.580Z,992.48
2017-12-15T11:46:46.606Z,992.47
2017-12-15T11:47:46.622Z,992.53
2017-12-15T11:48:46.654Z,992.55
2017-12-15T11:49:46.657Z,992.53
2017-12-15T11:50:46.691Z,992.54
2017-12-15T11:51:46.694Z,992.54
2017-12-15T11:52:46.724Z,992.57
2017-12-15T11:53:46.739Z,992.58
2017-12-15T11:54:46.753Z,992.55
2017-12-15T11:55:46.776Z,992.61
2017-12-15T11:56:46.798Z,992.59
2017-12-15T11:57:46.827Z,992.61
2017-12-15T11:58:46.835Z,992.65
2017-12-15T11:59:47.402Z,992.60
2017-12-15T12:00:46.872Z,992.59
2017-12-15T12:01:47.011Z,992.64
2017-12-15T12:02:46.922Z,992.66
2017-12-15T12:03:46.934Z,992.64
2017-12-15T12:04:46.949Z,992.66
2017-12-15T12:05:46.966Z,992.67
2017-12-15T12:06:46.994Z,992.70
2017-12-15T12:07:47.008Z,992.69
2017-12-15T12:08:47.034Z,992.68
2017-12-15T12:09:47.048Z,992.70
2017-12-15T12:10:47.072Z,992.67
2017-12-15T12:11:47.094Z,992.69
2017-12-15T12:12:47.106Z,992.72
2017-12-15T12:13:47.133Z,992.73
2017-12-15T12:14:47.214Z,992.74
2017-12-15T12:15:47.163Z,992.74
2017-12-15T12:16:47.199Z,992.76
2017-12-15T12:17:47.207Z,992.78
2017-12-15T12:18:47.229Z,992.81
2017-12-15T12:19:47.241Z,992.82
2017-12-15T12:20:47.268Z,992.84
2017-12-15T12:21:47.280Z,992.84
2017-12-15T12:22:47.318Z,992.85
2017-12-15T12:23:47.321Z,992.84
2017-12-15T12:24:47.339Z,992.87
2017-12-15T12:25:47.369Z,992.88
2017-12-15T12:26:47.375Z,992.91
2017-12-15T12:27:47.399Z,992.92
2017-12-15T12:28:47.421Z,992.91